createdAt,value
2022-11-06T00:01:50.145Z,1006.1
2022-11-06T00:06:56.161Z,1006.2
2022-11-06T00:12:02.200Z,1006.1
2022-11-06T00:17:08.276Z,1006.1
2022-11-06T00:22:14.318Z,1006
2022-11-06T00:27:22.247Z,1006.1
2022-11-06T00:32:28.288Z,1006.1
2022-11-06T00:37:34.385Z,1006.2
2022-11-06T00:42:40.421Z,1006.2
2022-11-06T00:47:46.484Z,1006.1
2022-11-06T00:52:52.585Z,1006.1
2022-11-06T00:57:58.625Z,1006.1
2022-11-06T01:03:04.848Z,1006.1
2022-11-06T01:08:11.236Z,1006.1
2022-11-06T01:13:16.785Z,1006
2022-11-06T01:18:22.850Z,1006
2022-11-06T01:23:28.937Z,1005.9
2022-11-06T01:28:36.854Z,1005.9
2022-11-06T01:33:42.899Z,1005.9
2022-11-06T01:38:48.954Z,1005.8
2022-11-06T01:43:56.911Z,1005.8
2022-11-06T01:49:04.846Z,1005.7
2022-11-06T01:54:10.916Z,1005.6
2022-11-06T01:59:16.947Z,1005.6
2022-11-06T02:04:23.016Z,1005.4
2022-11-06T02:09:29.098Z,1005.5
2022-11-06T02:14:35.137Z,1005.5
2022-11-06T02:19:41.184Z,1005.4
2022-11-06T02:24:47.280Z,1005.4
2022-11-06T02:29:53.313Z,1005.4
2022-11-06T02:34:59.395Z,1005.3
2022-11-06T02:40:05.481Z,1005.4
2022-11-06T02:45:11.492Z,1005.5
2022-11-06T02:50:17.575Z,1005.3
2022-11-06T02:55:23.624Z,1005.4
2022-11-06T03:00:29.671Z,1005.2
2022-11-06T03:05:35.760Z,1005.2
2022-11-06T03:10:41.833Z,1005.2
2022-11-06T03:15:47.867Z,1005.1
2022-11-06T03:20:53.924Z,1005
2022-11-06T03:26:00.005Z,1004.9
2022-11-06T03:31:06.043Z,1004.8
2022-11-06T03:36:12.099Z,1004.9
2022-11-06T03:41:18.177Z,1005
2022-11-06T03:46:24.225Z,1005
2022-11-06T03:51:30.282Z,1005
2022-11-06T03:56:36.380Z,1005.1
2022-11-06T04:01:42.616Z,1005.1
2022-11-06T04:06:48.450Z,1005
2022-11-06T04:11:54.534Z,1005
2022-11-06T04:17:00.557Z,1005
2022-11-06T04:22:06.687Z,1005
2022-11-06T04:27:12.796Z,1005
2022-11-06T04:32:18.752Z,1005
2022-11-06T04:37:24.807Z,1004.9
2022-11-06T04:42:32.773Z,1004.8
2022-11-06T04:47:38.804Z,1004.8
2022-11-06T04:52:44.863Z,1004.8
2022-11-06T04:57:50.948Z,1004.6
2022-11-06T05:02:57.005Z,1004.5
2022-11-06T05:08:03.067Z,1004.5
2022-11-06T05:13:09.148Z,1004.2
2022-11-06T05:18:17.171Z,1004.3
2022-11-06T05:23:23.131Z,1004.2
2022-11-06T05:28:29.209Z,1004.1
2022-11-06T05:33:35.246Z,1004
2022-11-06T05:38:41.290Z,1004
2022-11-06T05:43:47.392Z,1003.9
2022-11-06T05:48:53.416Z,1003.9
2022-11-06T05:53:59.476Z,1003.9
2022-11-06T05:59:05.559Z,1003.8
2022-11-06T06:04:11.580Z,1003.8
2022-11-06T06:09:17.674Z,1003.6
2022-11-06T06:14:23.745Z,1003.7
2022-11-06T06:19:30.026Z,1003.6
2022-11-06T06:24:35.882Z,1003.7
2022-11-06T06:29:41.919Z,1003.5
2022-11-06T06:34:47.945Z,1003.4
2022-11-06T06:39:54.010Z,1003.4
2022-11-06T06:45:00.107Z,1003.5
2022-11-06T06:50:06.194Z,1003.6
2022-11-06T06:55:12.197Z,1003.6
2022-11-06T07:00:18.310Z,1003.8
2022-11-06T07:05:24.293Z,1003.7
2022-11-06T07:10:30.366Z,1003.7
2022-11-06T07:15:38.363Z,1003.7
2022-11-06T07:20:44.539Z,1003.8
2022-11-06T07:25:50.439Z,1003.7
2022-11-06T07:30:58.479Z,1003.7
2022-11-06T07:36:04.420Z,1003.7
2022-11-06T07:41:10.476Z,1003.7
2022-11-06T07:46:18.570Z,1003.7
2022-11-06T07:51:24.478Z,1003.8
2022-11-06T07:56:30.528Z,1003.8
2022-11-06T08:01:36.757Z,1003.8
2022-11-06T08:06:42.641Z,1003.6
2022-11-06T08:11:50.601Z,1003.5
2022-11-06T08:16:56.676Z,1003.6
2022-11-06T08:22:02.712Z,1003.5
2022-11-06T08:27:08.776Z,1003.4
2022-11-06T08:32:14.875Z,1003.5
2022-11-06T08:37:21.181Z,1003.4
2022-11-06T08:42:26.965Z,1003.3
2022-11-06T08:47:33.037Z,1003.3
2022-11-06T08:52:39.107Z,1003.2
2022-11-06T08:57:45.132Z,1003.1
2022-11-06T09:02:51.295Z,1003.1
2022-11-06T09:07:59.136Z,1003.1
2022-11-06T09:13:07.085Z,1003.1
2022-11-06T09:18:13.310Z,1002.9
2022-11-06T09:23:19.198Z,1002.8
2022-11-06T09:28:30.268Z,1002.7
2022-11-06T09:33:31.358Z,1002.6
2022-11-06T09:38:37.371Z,1002.4
2022-11-06T09:44:03.962Z,1002.4
2022-11-06T09:48:49.523Z,1002.4
2022-11-06T09:53:57.427Z,1002.3
2022-11-06T09:59:03.481Z,1002.3
2022-11-06T10:04:09.569Z,1002.3
2022-11-06T10:09:15.614Z,1002.2
2022-11-06T10:14:21.656Z,1002.2
2022-11-06T10:19:27.735Z,1002.1
2022-11-06T10:24:33.781Z,1002.2
2022-11-06T10:29:39.826Z,1001.9
2022-11-06T10:34:45.920Z,1002
2022-11-06T10:39:51.943Z,1001.9
2022-11-06T10:44:59.904Z,1001.8
2022-11-06T10:50:06.029Z,1001.8
2022-11-06T10:55:12.009Z,1001.7
2022-11-06T11:00:20.036Z,1001.6
2022-11-06T11:05:27.913Z,1001.5
2022-11-06T11:10:35.876Z,1001.5
2022-11-06T11:15:43.783Z,1001.5
2022-11-06T11:20:49.867Z,1001.3
2022-11-06T11:25:57.789Z,1001.2
2022-11-06T11:31:03.821Z,1001.1
2022-11-06T11:36:11.906Z,1001
2022-11-06T11:41:17.843Z,1000.9
2022-11-06T11:46:25.018Z,1000.9
2022-11-06T11:51:31.098Z,1000.8
2022-11-06T12:01:43.272Z,1000.4
2022-11-06T12:06:49.292Z,1000.2
2022-11-06T12:11:55.315Z,1000.2
2022-11-06T12:17:03.291Z,1000.1
2022-11-06T12:22:09.456Z,999.9
2022-11-06T12:27:15.370Z,999.6
2022-11-06T12:32:21.428Z,999.5
2022-11-06T12:37:27.523Z,999.5
2022-11-06T12:42:33.545Z,999.6
2022-11-06T12:47:41.484Z,999.4
2022-11-06T12:52:49.470Z,999.2
2022-11-06T12:57:55.474Z,999.3
2022-11-06T13:03:01.556Z,999.3
2022-11-06T13:08:07.626Z,999.2
2022-11-06T13:13:15.351Z,999.2
2022-11-06T13:18:19.737Z,999.2
2022-11-06T13:23:25.831Z,999.1
2022-11-06T13:28:31.845Z,999.2
2022-11-06T13:33:37.899Z,999.1
2022-11-06T13:38:44.071Z,999
2022-11-06T13:43:50.037Z,999
2022-11-06T13:48:56.081Z,999.1
2022-11-06T13:54:04.054Z,999
2022-11-06T13:59:10.079Z,999.1
2022-11-06T14:04:16.143Z,999
2022-11-06T14:09:24.102Z,998.9
2022-11-06T14:14:30.151Z,998.7
2022-11-06T14:19:36.211Z,998.8
2022-11-06T14:24:42.568Z,998.8
2022-11-06T14:29:48.336Z,998.8
2022-11-06T14:34:54.382Z,998.9
2022-11-06T14:40:00.529Z,998.7
2022-11-06T14:45:06.519Z,998.8
2022-11-06T14:50:12.582Z,998.8
2022-11-06T15:00:28.506Z,998.7
2022-11-06T15:05:37.582Z,998.7
2022-11-06T15:10:40.794Z,998.7
2022-11-06T15:15:48.547Z,998.8
2022-11-06T15:20:54.577Z,998.8
2022-11-06T15:26:02.541Z,998.9
2022-11-06T15:31:08.619Z,998.8
2022-11-06T15:36:14.635Z,998.9
2022-11-06T15:41:20.683Z,998.9
2022-11-06T15:46:28.647Z,998.9
2022-11-06T15:51:34.670Z,999
2022-11-06T15:56:40.755Z,999.1
2022-11-06T16:01:46.934Z,999.2
2022-11-06T16:06:52.869Z,999
2022-11-06T16:11:58.943Z,998.7
2022-11-06T16:17:05.033Z,998.5
2022-11-06T16:22:12.932Z,998.2
2022-11-06T16:27:18.971Z,997.6
2022-11-06T16:32:27.028Z,997.5
2022-11-06T16:37:32.975Z,997.2
2022-11-06T16:42:39.046Z,997.2
2022-11-06T16:47:45.183Z,997.1
2022-11-06T16:52:51.145Z,997.3
2022-11-06T16:57:57.220Z,997.4
2022-11-06T17:03:03.430Z,997.5
2022-11-06T17:08:09.335Z,997.6
2022-11-06T17:13:15.705Z,997.7
2022-11-06T17:18:21.477Z,997.6
2022-11-06T17:23:27.510Z,997.7
2022-11-06T17:28:33.573Z,997.6
2022-11-06T17:33:39.665Z,997.5
2022-11-06T17:38:45.704Z,997.3
2022-11-06T17:43:51.741Z,997.3
2022-11-06T17:48:57.850Z,997.2
2022-11-06T17:54:03.876Z,997.1
2022-11-06T17:59:09.935Z,997.1
2022-11-06T18:04:16.032Z,997
2022-11-06T18:09:22.052Z,996.7
2022-11-06T18:14:28.115Z,996.6
2022-11-06T18:19:34.283Z,996.6
2022-11-06T18:24:40.235Z,996.8
2022-11-06T18:29:48.174Z,997
2022-11-06T18:34:56.152Z,997
2022-11-06T18:40:02.325Z,997.1
2022-11-06T18:45:08.234Z,997.1
2022-11-06T18:50:14.331Z,997.1
2022-11-06T18:55:20.342Z,997
2022-11-06T19:00:28.316Z,997.2
2022-11-06T19:05:34.529Z,997.2
2022-11-06T19:10:40.396Z,997.1
2022-11-06T19:15:46.481Z,997.2
2022-11-06T19:20:52.646Z,997.3
2022-11-06T19:26:10.644Z,997.4
2022-11-06T19:31:06.537Z,997.3
2022-11-06T19:36:12.612Z,997.4
2022-11-06T19:41:18.633Z,997.4
2022-11-06T19:46:32.352Z,997.4
2022-11-06T19:51:32.673Z,997.4
2022-11-06T19:57:27.562Z,997.4
2022-11-06T20:01:46.737Z,997.5
2022-11-06T20:06:54.598Z,997.7
2022-11-06T20:12:00.649Z,997.6
2022-11-06T20:17:06.709Z,997.5
2022-11-06T20:22:12.936Z,997.7
2022-11-06T20:27:18.837Z,997.8
2022-11-06T20:32:26.782Z,997.9
2022-11-06T20:37:32.869Z,998
2022-11-06T20:42:40.764Z,998.1
2022-11-06T20:47:46.825Z,998.1
2022-11-06T20:52:54.793Z,998.2
2022-11-06T20:58:00.812Z,998.2
2022-11-06T21:03:06.942Z,998.2
2022-11-06T21:08:13.250Z,998.2
2022-11-06T21:13:18.995Z,998.4
2022-11-06T21:18:25.074Z,998.4
2022-11-06T21:23:31.159Z,998.5
2022-11-06T21:28:37.186Z,998.5
2022-11-06T21:33:43.227Z,998.6
2022-11-06T21:38:49.334Z,998.6
2022-11-06T21:43:55.355Z,998.6
2022-11-06T21:49:01.401Z,998.7
2022-11-06T21:54:07.511Z,998.7
2022-11-06T21:59:13.543Z,998.8
2022-11-06T22:04:19.596Z,998.8
2022-11-06T22:09:26.031Z,998.8
2022-11-06T22:14:33.592Z,998.8
2022-11-06T22:19:41.536Z,998.9
2022-11-06T22:24:47.615Z,998.9
2022-11-06T22:29:53.682Z,998.9
2022-11-06T22:35:01.588Z,998.8
2022-11-06T22:40:07.773Z,998.9
2022-11-06T22:45:15.587Z,998.8
2022-11-06T22:50:21.656Z,998.8
2022-11-06T22:55:27.852Z,998.8
2022-11-06T23:00:33.881Z,998.9
2022-11-06T23:05:39.810Z,998.9
2022-11-06T23:10:45.937Z,999
2022-11-06T23:15:51.943Z,999
2022-11-06T23:20:58.009Z,999
2022-11-06T23:26:04.079Z,999.1
2022-11-06T23:31:12.012Z,999.2
2022-11-06T23:36:18.075Z,999.2
2022-11-06T23:41:24.247Z,999.2
2022-11-06T23:46:30.190Z,999.2
2022-11-06T23:51:38.110Z,999.2
2022-11-06T23:56:44.317Z,999.2
